Time;durP1;ratioP1;P1;durP2;ratioP2;P2;SDS_P1;SDS_P2;PMS_P1;PMS_P2;Temp;Humidity;BMP_temperature;BMP_pressure;BME280_temperature;BME280_humidity;BME280_pressure;Samples;Min_cycle;Max_cycle;Signal;HPM_P1;HPM_P2
2021/09/09 00:01:38;;;;;;;9.45;4.68;;;16.00;80.20;;;;;;5136387;27;20074;-48
2021/09/09 00:04:04;;;;;;;7.95;3.85;;;15.90;80.30;;;;;;5083755;27;20035;-50
2021/09/09 00:06:29;;;;;;;9.90;4.72;;;15.90;80.60;;;;;;5136802;27;20026;-49
2021/09/09 00:08:55;;;;;;;8.98;3.95;;;15.80;81.00;;;;;;5136447;27;20023;-50
2021/09/09 00:11:21;;;;;;;7.75;4.20;;;15.80;81.30;;;;;;5136072;27;20482;-49
2021/09/09 00:13:47;;;;;;;11.10;4.60;;;15.90;81.20;;;;;;5136448;27;20023;-52
2021/09/09 00:16:13;;;;;;;8.48;4.10;;;16.10;80.50;;;;;;5136117;27;20382;-49
2021/09/09 00:18:39;;;;;;;8.70;4.20;;;16.10;80.60;;;;;;5136010;27;20512;-52
2021/09/09 00:21:05;;;;;;;10.23;4.80;;;16.10;80.60;;;;;;5136201;27;20168;-51
2021/09/09 00:23:31;;;;;;;13.88;3.83;;;15.90;81.70;;;;;;5100107;27;20031;-51
2021/09/09 00:25:57;;;;;;;7.30;4.10;;;16.00;81.50;;;;;;5117185;27;20039;-50
2021/09/09 00:28:23;;;;;;;11.68;5.07;;;16.10;81.70;;;;;;5135862;27;20474;-51
2021/09/09 00:30:51;;;;;;;10.73;4.70;;;16.20;81.60;;;;;;5135785;27;20031;-49
2021/09/09 00:33:20;;;;;;;14.60;5.82;;;16.30;81.60;;;;;;5135861;27;20035;-49
2021/09/09 00:35:46;;;;;;;9.00;4.53;;;16.10;81.30;;;;;;5135684;27;20111;-54
2021/09/09 00:38:15;;;;;;;15.85;4.63;;;16.10;81.30;;;;;;5066257;27;20035;-49
2021/09/09 00:40:41;;;;;;;11.63;4.72;;;16.20;81.70;;;;;;5135787;27;20034;-51
2021/09/09 00:43:07;;;;;;;11.63;5.45;;;16.30;81.10;;;;;;5038850;28;20063;-50
2021/09/09 00:45:33;;;;;;;14.73;4.60;;;16.30;80.90;;;;;;5072297;28;20076;-49
2021/09/09 00:47:59;;;;;;;9.23;4.80;;;16.30;81.40;;;;;;5072440;28;20063;-49
2021/09/09 00:50:25;;;;;;;11.93;4.88;;;16.40;81.00;;;;;;5072258;28;20056;-51
2021/09/09 00:52:51;;;;;;;9.55;4.50;;;16.30;80.80;;;;;;5072321;28;20036;-51
2021/09/09 00:55:18;;;;;;;9.10;4.65;;;16.30;81.00;;;;;;5072158;28;20099;-53
2021/09/09 00:57:46;;;;;;;19.58;5.13;;;16.30;80.80;;;;;;5072076;28;20044;-53
2021/09/09 01:00:13;;;;;;;10.20;4.07;;;16.20;81.00;;;;;;5055280;28;20090;-52
2021/09/09 01:02:39;;;;;;;12.57;4.13;;;16.20;81.00;;;;;;5038654;28;20056;-51
2021/09/09 01:05:06;;;;;;;10.80;3.92;;;16.10;81.20;;;;;;5071904;28;20384;-52
2021/09/09 01:07:32;;;;;;;12.95;4.82;;;16.00;81.50;;;;;;5088629;28;20501;-51
2021/09/09 01:09:58;;;;;;;16.63;5.78;;;16.00;81.60;;;;;;5072205;28;20024;-51
2021/09/09 01:12:24;;;;;;;10.88;4.28;;;16.10;81.80;;;;;;5038502;28;20052;-53
2021/09/09 01:14:50;;;;;;;9.13;4.10;;;16.10;81.90;;;;;;5106346;28;20027;-50
2021/09/09 01:17:16;;;;;;;13.20;4.43;;;16.10;81.70;;;;;;5114437;28;20069;-49
2021/09/09 01:19:42;;;;;;;14.88;4.90;;;15.90;82.20;;;;;;5078658;28;20035;-49
2021/09/09 01:22:07;;;;;;;6.65;4.10;;;15.90;82.30;;;;;;5114555;28;20030;-48
2021/09/09 01:24:34;;;;;;;12.32;4.90;;;15.60;83.00;;;;;;5114160;28;20030;-49
2021/09/09 01:27:03;;;;;;;8.68;4.28;;;15.60;83.20;;;;;;5114383;28;20034;-48
2021/09/09 01:29:32;;;;;;;9.65;4.63;;;15.50;83.30;;;;;;5114000;28;20034;-48
2021/09/09 01:31:58;;;;;;;8.75;4.60;;;15.70;83.30;;;;;;5113971;28;20605;-51
2021/09/09 01:34:24;;;;;;;11.63;4.47;;;15.80;83.10;;;;;;5114269;28;20020;-50
2021/09/09 01:36:51;;;;;;;9.13;4.05;;;15.80;82.90;;;;;;5114306;28;20081;-51
2021/09/09 01:39:17;;;;;;;7.40;4.30;;;15.90;82.70;;;;;;5114364;28;20070;-50
2021/09/09 01:41:43;;;;;;;12.18;4.32;;;15.80;83.30;;;;;;5078374;28;20059;-49
2021/09/09 01:44:08;;;;;;;7.30;3.90;;;15.90;82.80;;;;;;5095419;28;20429;-48
2021/09/09 01:46:35;;;;;;;9.63;4.13;;;15.90;82.70;;;;;;5078314;28;20036;-50
2021/09/09 01:49:01;;;;;;;16.02;4.50;;;15.90;82.80;;;;;;5114241;28;20023;-50
2021/09/09 01:51:28;;;;;;;10.27;4.13;;;15.60;83.30;;;;;;5114026;28;20028;-48
2021/09/09 01:53:54;;;;;;;8.90;4.65;;;15.50;84.20;;;;;;5114148;28;20027;-50
2021/09/09 01:56:21;;;;;;;12.63;4.82;;;15.50;84.20;;;;;;5095227;28;20139;-49
2021/09/09 01:58:47;;;;;;;10.48;4.22;;;15.40;84.70;;;;;;5113956;28;20383;-51
2021/09/09 02:01:12;;;;;;;9.52;4.50;;;15.40;84.80;;;;;;5121234;28;20053;-52
2021/09/09 02:03:38;;;;;;;13.55;4.30;;;15.40;84.70;;;;;;5081870;28;20039;-50
2021/09/09 02:06:04;;;;;;;12.63;4.32;;;15.40;84.90;;;;;;5098462;28;20076;-50
2021/09/09 02:08:30;;;;;;;12.25;4.32;;;15.40;84.90;;;;;;5081528;28;20055;-53
2021/09/09 02:10:56;;;;;;;8.63;4.20;;;15.60;85.00;;;;;;5115645;28;20039;-54
2021/09/09 02:13:21;;;;;;;10.63;4.25;;;15.40;84.70;;;;;;5134488;28;20077;-52
2021/09/09 02:15:47;;;;;;;11.98;4.47;;;15.40;84.80;;;;;;5134274;28;20055;-50
2021/09/09 02:18:13;;;;;;;12.25;5.25;;;15.50;85.00;;;;;;5048084;28;20039;-50
2021/09/09 02:20:39;;;;;;;12.40;4.85;;;15.60;84.90;;;;;;5134490;28;20354;-51
2021/09/09 02:23:05;;;;;;;10.50;4.45;;;15.60;84.70;;;;;;5134182;28;20023;-51
2021/09/09 02:25:31;;;;;;;12.15;4.05;;;15.70;84.60;;;;;;5134555;28;20076;-50
2021/09/09 02:27:57;;;;;;;22.20;5.70;;;15.60;84.90;;;;;;5134129;28;20420;-49
2021/09/09 02:30:23;;;;;;;9.13;4.50;;;15.50;84.60;;;;;;5134193;28;20059;-50
2021/09/09 02:32:48;;;;;;;8.90;5.18;;;15.30;85.30;;;;;;5134849;27;20076;-51
2021/09/09 02:35:14;;;;;;;14.35;5.50;;;15.10;86.20;;;;;;5085787;27;20042;-50
2021/09/09 02:37:41;;;;;;;13.90;5.22;;;15.10;86.10;;;;;;5138102;27;20144;-49
2021/09/09 02:40:07;;;;;;;10.35;4.43;;;15.30;86.10;;;;;;5102176;27;20061;-50
2021/09/09 02:42:33;;;;;;;9.82;4.38;;;15.40;85.50;;;;;;5119388;27;20485;-51
2021/09/09 02:44:59;;;;;;;10.27;4.90;;;15.40;85.10;;;;;;5138038;27;20035;-49
2021/09/09 02:47:25;;;;;;;8.75;4.53;;;15.50;85.20;;;;;;5365301;22;20483;-50
2021/09/09 02:49:51;;;;;;;11.90;6.47;;;15.40;85.40;;;;;;5096940;28;20077;-53
2021/09/09 02:52:16;;;;;;;14.52;5.30;;;15.50;85.30;;;;;;5078127;28;20040;-50
2021/09/09 02:54:42;;;;;;;8.95;4.90;;;15.40;85.20;;;;;;5095889;28;20032;-52
2021/09/09 02:57:08;;;;;;;12.45;5.63;;;15.50;85.10;;;;;;5097184;28;20024;-50
2021/09/09 02:59:33;;;;;;;9.38;4.95;;;15.40;85.50;;;;;;5096734;28;20625;-48
2021/09/09 03:01:59;;;;;;;10.00;5.35;;;15.30;86.00;;;;;;5097113;28;20039;-48
2021/09/09 03:04:25;;;;;;;16.35;4.85;;;15.30;86.30;;;;;;5078104;28;20494;-50
2021/09/09 03:06:51;;;;;;;7.03;4.35;;;14.90;86.80;;;;;;5078697;28;20367;-48
2021/09/09 03:09:16;;;;;;;9.70;5.00;;;15.00;87.00;;;;;;5096817;28;20032;-50
2021/09/09 03:11:42;;;;;;;8.05;4.80;;;15.00;86.90;;;;;;5096803;28;20032;-52
2021/09/09 03:14:08;;;;;;;6.50;4.60;;;15.00;86.90;;;;;;5096830;28;20024;-50
2021/09/09 03:16:33;;;;;;;11.50;5.30;;;14.90;87.10;;;;;;5096815;28;20443;-53
2021/09/09 03:18:59;;;;;;;10.05;4.80;;;14.70;87.90;;;;;;5097077;28;20023;-51
2021/09/09 03:21:25;;;;;;;12.55;5.68;;;14.70;88.10;;;;;;5096353;28;20471;-49
2021/09/09 03:23:51;;;;;;;17.30;5.82;;;14.70;88.20;;;;;;5096369;28;20020;-50
2021/09/09 03:26:16;;;;;;;12.45;4.90;;;14.90;88.20;;;;;;5077766;28;20115;-51
2021/09/09 03:28:42;;;;;;;8.77;5.07;;;14.90;88.10;;;;;;5096400;28;20528;-51
2021/09/09 03:31:08;;;;;;;17.05;6.07;;;15.00;88.10;;;;;;5096195;28;20020;-53
2021/09/09 03:33:34;;;;;;;13.05;5.22;;;15.00;88.40;;;;;;5096228;28;20042;-51
2021/09/09 03:35:59;;;;;;;8.07;4.57;;;14.90;88.70;;;;;;5096351;28;20024;-49
2021/09/09 03:38:25;;;;;;;8.77;4.10;;;15.00;89.10;;;;;;5096132;28;20023;-51
2021/09/09 03:40:51;;;;;;;11.57;4.97;;;14.70;90.00;;;;;;5096052;28;20028;-49
2021/09/09 03:43:16;;;;;;;8.25;4.57;;;14.80;90.00;;;;;;5096215;28;20024;-51
2021/09/09 03:45:42;;;;;;;7.30;4.57;;;14.80;89.90;;;;;;5096162;28;20020;-50
2021/09/09 03:48:08;;;;;;;11.35;5.47;;;14.60;89.70;;;;;;5073591;28;20048;-48
2021/09/09 03:50:34;;;;;;;13.48;4.57;;;14.60;89.50;;;;;;5073948;28;20379;-48
2021/09/09 03:52:59;;;;;;;8.82;4.70;;;14.80;88.60;;;;;;5075572;28;20032;-51
2021/09/09 03:55:25;;;;;;;12.45;5.25;;;14.80;88.60;;;;;;5075507;28;20020;-51
2021/09/09 03:57:51;;;;;;;8.45;4.82;;;14.90;88.30;;;;;;5075677;28;20031;-51
2021/09/09 04:00:17;;;;;;;15.85;5.07;;;14.80;88.40;;;;;;5076059;28;20020;-49
2021/09/09 04:02:43;;;;;;;8.15;4.78;;;14.90;88.10;;;;;;5073298;28;20064;-49
2021/09/09 04:05:09;;;;;;;9.15;4.75;;;14.90;88.30;;;;;;5073480;28;20416;-51
2021/09/09 04:07:35;;;;;;;12.35;4.75;;;14.90;88.50;;;;;;5073220;28;20037;-51
2021/09/09 04:10:01;;;;;;;7.63;4.50;;;14.80;88.70;;;;;;5073189;28;20104;-51
2021/09/09 04:12:26;;;;;;;10.38;4.38;;;14.90;88.10;;;;;;5073092;28;20029;-51
2021/09/09 04:14:52;;;;;;;9.77;4.50;;;14.60;88.80;;;;;;5073203;28;20606;-49
2021/09/09 04:17:18;;;;;;;13.65;4.82;;;14.50;89.70;;;;;;5039891;28;20029;-50
2021/09/09 04:19:44;;;;;;;9.43;4.40;;;14.40;90.00;;;;;;5072994;28;20095;-51
2021/09/09 04:22:11;;;;;;;13.07;4.90;;;14.20;90.40;;;;;;5073266;28;20107;-49
2021/09/09 04:24:37;;;;;;;10.65;5.18;;;14.40;90.20;;;;;;5072962;28;20036;-51
2021/09/09 04:27:04;;;;;;;11.85;5.40;;;14.30;89.90;;;;;;5072958;28;20028;-52
2021/09/09 04:29:30;;;;;;;11.48;5.45;;;14.30;90.20;;;;;;5072655;28;20056;-49
2021/09/09 04:31:56;;;;;;;14.73;5.22;;;14.50;90.40;;;;;;5072702;28;20083;-50
2021/09/09 04:34:22;;;;;;;8.40;4.10;;;14.60;90.00;;;;;;5072803;28;20543;-49
2021/09/09 04:36:47;;;;;;;8.75;4.35;;;14.70;89.20;;;;;;5072997;28;20427;-50
2021/09/09 04:39:13;;;;;;;11.07;5.03;;;14.70;88.70;;;;;;5072825;28;20029;-50
2021/09/09 04:41:39;;;;;;;14.35;5.03;;;14.80;88.60;;;;;;5074870;28;20429;-51
2021/09/09 04:44:05;;;;;;;8.35;5.38;;;14.90;88.70;;;;;;5074574;28;20024;-49
2021/09/09 04:46:32;;;;;;;7.95;4.47;;;15.00;88.60;;;;;;5089898;28;20037;-50
2021/09/09 04:48:58;;;;;;;9.52;5.43;;;15.00;88.50;;;;;;5087929;28;20075;-50
2021/09/09 04:51:23;;;;;;;8.82;4.72;;;15.00;88.70;;;;;;5094892;28;20056;-49
2021/09/09 04:53:50;;;;;;;11.35;4.68;;;15.10;88.30;;;;;;5076144;28;20438;-50
2021/09/09 04:56:16;;;;;;;11.77;4.45;;;14.90;88.10;;;;;;5093948;28;20046;-49
2021/09/09 04:58:41;;;;;;;7.70;4.57;;;14.80;88.30;;;;;;5075907;28;20024;-51
2021/09/09 05:01:07;;;;;;;7.45;4.85;;;14.70;88.50;;;;;;5094443;28;20604;-50
2021/09/09 05:03:33;;;;;;;12.35;5.10;;;14.70;88.60;;;;;;5094634;28;20099;-49
2021/09/09 05:05:59;;;;;;;9.35;4.45;;;14.60;88.90;;;;;;5094419;28;20071;-51
2021/09/09 05:08:25;;;;;;;11.20;4.40;;;14.50;89.40;;;;;;5094294;28;20035;-50
2021/09/09 05:10:50;;;;;;;9.13;5.03;;;14.40;89.90;;;;;;5094834;28;20035;-50
2021/09/09 05:13:16;;;;;;;10.05;4.25;;;14.40;90.00;;;;;;5094206;28;20039;-50
2021/09/09 05:15:42;;;;;;;8.95;5.28;;;14.60;89.60;;;;;;5092584;28;20115;-49
2021/09/09 05:18:07;;;;;;;10.10;4.72;;;14.60;89.50;;;;;;5094285;28;20024;-51
2021/09/09 05:20:33;;;;;;;10.50;5.13;;;14.80;89.50;;;;;;5075796;28;20032;-51
2021/09/09 05:22:59;;;;;;;10.25;5.13;;;15.00;89.40;;;;;;5094436;28;20032;-52
2021/09/09 05:25:25;;;;;;;16.95;6.07;;;15.20;89.00;;;;;;5094377;28;20043;-50
2021/09/09 05:27:50;;;;;;;10.32;5.13;;;15.30;88.40;;;;;;5075782;28;20097;-51
2021/09/09 05:30:16;;;;;;;9.85;5.45;;;15.50;88.00;;;;;;5059010;28;20513;-49
2021/09/09 05:32:42;;;;;;;14.77;5.53;;;15.60;88.30;;;;;;5093840;28;20372;-51
2021/09/09 05:35:08;;;;;;;11.52;5.88;;;15.60;87.40;;;;;;5042506;28;20028;-50
2021/09/09 05:37:34;;;;;;;7.82;4.80;;;15.60;87.40;;;;;;5094063;28;20020;-50
2021/09/09 05:40:00;;;;;;;9.93;4.80;;;15.70;87.10;;;;;;5094256;28;20016;-50
2021/09/09 05:42:26;;;;;;;9.07;4.53;;;15.80;87.40;;;;;;5075700;28;20043;-51
2021/09/09 05:44:52;;;;;;;9.45;4.47;;;15.70;86.90;;;;;;5094417;28;20031;-50
2021/09/09 05:47:18;;;;;;;7.82;4.35;;;15.90;87.70;;;;;;5094902;28;20418;-52
2021/09/09 05:49:44;;;;;;;11.00;4.60;;;16.00;86.90;;;;;;5092401;28;20052;-50
2021/09/09 05:52:10;;;;;;;9.55;4.55;;;16.00;87.30;;;;;;5093663;28;20032;-51
2021/09/09 05:54:36;;;;;;;9.63;4.97;;;16.20;87.70;;;;;;5093710;28;20115;-50
2021/09/09 05:57:02;;;;;;;9.13;4.85;;;16.30;87.60;;;;;;5094164;28;20048;-49
2021/09/09 05:59:28;;;;;;;7.85;5.22;;;16.40;88.30;;;;;;5093650;28;20024;-51
2021/09/09 06:01:54;;;;;;;10.52;5.30;;;16.50;88.90;;;;;;5093876;28;20381;-52
2021/09/09 06:04:21;;;;;;;8.95;5.13;;;16.60;87.80;;;;;;5093520;28;20375;-49
2021/09/09 06:06:48;;;;;;;8.10;5.20;;;16.70;87.30;;;;;;5094302;28;20016;-49
2021/09/09 06:09:14;;;;;;;13.40;4.80;;;16.70;87.60;;;;;;5098003;28;20048;-51
2021/09/09 06:11:40;;;;;;;7.93;4.97;;;16.90;86.20;;;;;;5098157;28;20368;-48
2021/09/09 06:14:06;;;;;;;10.23;5.95;;;17.00;86.50;;;;;;5097999;28;20030;-50
2021/09/09 06:16:33;;;;;;;7.25;5.47;;;17.20;87.30;;;;;;5098279;28;20020;-50
2021/09/09 06:18:59;;;;;;;10.02;4.95;;;17.00;86.40;;;;;;5098311;28;20020;-49
2021/09/09 06:21:25;;;;;;;9.23;4.97;;;17.00;86.90;;;;;;5097862;28;20077;-49
2021/09/09 06:23:51;;;;;;;13.10;7.43;;;17.10;86.60;;;;;;5078973;28;20414;-48
2021/09/09 06:26:18;;;;;;;12.77;7.00;;;17.30;87.30;;;;;;5079233;28;20401;-50
2021/09/09 06:28:43;;;;;;;15.60;7.32;;;17.50;87.00;;;;;;5097527;28;20460;-49
2021/09/09 06:31:09;;;;;;;8.10;5.20;;;17.80;87.60;;;;;;5079200;28;20072;-49
2021/09/09 06:33:35;;;;;;;12.40;5.45;;;18.10;85.30;;;;;;5097418;28;20020;-49
2021/09/09 06:36:01;;;;;;;8.88;4.93;;;18.20;86.00;;;;;;5097622;28;20020;-50
2021/09/09 06:38:26;;;;;;;8.48;4.78;;;18.20;85.10;;;;;;5097832;28;20113;-50
2021/09/09 06:40:52;;;;;;;11.13;4.72;;;18.40;85.00;;;;;;5097511;28;20457;-48
2021/09/09 06:43:18;;;;;;;10.00;4.30;;;18.40;85.30;;;;;;5097711;28;20020;-48
2021/09/09 06:45:44;;;;;;;8.38;5.13;;;18.40;85.20;;;;;;5097407;28;20087;-48
2021/09/09 06:48:09;;;;;;;9.93;4.95;;;18.40;85.50;;;;;;5097002;28;20071;-48
2021/09/09 06:50:35;;;;;;;8.15;4.57;;;18.40;85.80;;;;;;5097550;28;20048;-48
2021/09/09 06:53:02;;;;;;;8.20;4.28;;;18.50;86.40;;;;;;5096947;28;20073;-49
2021/09/09 06:55:27;;;;;;;11.15;5.15;;;18.60;85.90;;;;;;5078786;28;20040;-49
2021/09/09 06:57:53;;;;;;;6.03;3.97;;;18.80;85.60;;;;;;5096810;28;20095;-48
2021/09/09 07:00:19;;;;;;;8.73;3.75;;;18.70;85.30;;;;;;5078435;28;20098;-47
2021/09/09 07:02:45;;;;;;;10.07;3.70;;;18.90;84.80;;;;;;5078227;28;20039;-48
2021/09/09 07:05:11;;;;;;;7.18;3.08;;;19.20;84.40;;;;;;5096737;28;20020;-51
2021/09/09 07:07:38;;;;;;;7.22;3.15;;;19.10;82.90;;;;;;5096902;28;20021;-48
2021/09/09 07:10:05;;;;;;;13.65;3.92;;;19.40;82.40;;;;;;5096975;28;20028;-49
2021/09/09 07:12:31;;;;;;;6.63;3.22;;;19.50;81.00;;;;;;5060285;28;20119;-48
2021/09/09 07:14:56;;;;;;;7.45;3.05;;;19.80;80.10;;;;;;5095585;28;20110;-49
2021/09/09 07:17:22;;;;;;;8.40;3.28;;;19.90;78.90;;;;;;5095283;28;20028;-50
2021/09/09 07:19:48;;;;;;;4.07;2.67;;;20.30;79.30;;;;;;5075415;28;20036;-48
2021/09/09 07:22:13;;;;;;;10.75;3.10;;;20.40;77.90;;;;;;5095157;28;20077;-51
2021/09/09 07:24:39;;;;;;;7.20;2.97;;;20.40;77.90;;;;;;5095239;28;20032;-49
2021/09/09 07:27:05;;;;;;;8.05;3.00;;;20.60;77.50;;;;;;5094590;28;20467;-49
2021/09/09 07:29:30;;;;;;;4.65;2.58;;;20.80;76.40;;;;;;5095094;28;20077;-48
2021/09/09 07:31:56;;;;;;;7.30;2.90;;;21.10;76.30;;;;;;5094899;28;20036;-49
2021/09/09 07:34:22;;;;;;;11.40;3.55;;;21.30;75.30;;;;;;5094968;28;20368;-50
2021/09/09 07:36:48;;;;;;;5.70;3.05;;;21.50;75.50;;;;;;5075862;28;20036;-50
2021/09/09 07:39:14;;;;;;;7.35;3.20;;;21.60;75.00;;;;;;5095905;28;20462;-49
2021/09/09 07:41:39;;;;;;;6.97;3.03;;;21.60;75.10;;;;;;5095944;28;20029;-49
2021/09/09 07:44:05;;;;;;;6.32;2.58;;;21.70;74.70;;;;;;5077075;28;20040;-51
2021/09/09 07:46:31;;;;;;;6.88;3.13;;;21.80;74.70;;;;;;5095865;28;20379;-48
2021/09/09 07:48:57;;;;;;;8.88;4.18;;;21.80;74.30;;;;;;5076938;28;20487;-48
2021/09/09 07:51:22;;;;;;;7.47;2.83;;;21.70;74.40;;;;;;5077176;28;20040;-49
2021/09/09 07:53:49;;;;;;;11.00;2.80;;;21.80;74.60;;;;;;5095842;28;20153;-50
2021/09/09 07:56:16;;;;;;;8.43;3.42;;;21.90;74.20;;;;;;5093725;28;20464;-49
2021/09/09 07:58:47;;;;;;;6.15;2.72;;;22.10;73.70;;;;;;5051771;28;20044;-49
2021/09/09 08:01:12;;;;;;;8.10;3.05;;;22.40;74.10;;;;;;5051821;28;20076;-49
2021/09/09 08:03:38;;;;;;;5.30;2.95;;;22.80;73.60;;;;;;5051868;28;20065;-50
2021/09/09 08:06:04;;;;;;;9.00;3.55;;;22.70;72.40;;;;;;5018331;28;20063;-49
2021/09/09 08:08:29;;;;;;;4.75;2.95;;;22.80;72.00;;;;;;5051242;28;20438;-49
2021/09/09 08:10:55;;;;;;;8.07;2.80;;;22.90;72.30;;;;;;5051622;28;20044;-50
2021/09/09 08:13:21;;;;;;;9.98;2.97;;;23.00;71.50;;;;;;5051516;28;20425;-49
2021/09/09 08:15:47;;;;;;;6.35;2.63;;;23.50;71.30;;;;;;5034768;28;20037;-50
2021/09/09 08:18:12;;;;;;;7.47;2.33;;;23.20;71.30;;;;;;5051519;28;20526;-48
2021/09/09 08:20:38;;;;;;;5.88;2.95;;;23.40;70.80;;;;;;5051051;28;20542;-51
2021/09/09 08:23:04;;;;;;;6.90;3.00;;;23.60;71.20;;;;;;5051445;28;20082;-50
2021/09/09 08:25:29;;;;;;;4.47;2.83;;;23.80;70.40;;;;;;5051479;28;20052;-51
2021/09/09 08:27:55;;;;;;;6.53;2.38;;;23.90;69.70;;;;;;5018059;28;20044;-49
2021/09/09 08:30:21;;;;;;;5.80;2.83;;;24.00;69.00;;;;;;5083461;28;20040;-50
2021/09/09 08:32:46;;;;;;;6.82;3.08;;;23.90;68.30;;;;;;5093486;28;20032;-48
2021/09/09 08:35:12;;;;;;;5.20;2.13;;;24.10;68.10;;;;;;5093272;28;20035;-48
2021/09/09 08:37:38;;;;;;;4.88;2.75;;;23.90;67.60;;;;;;5074695;28;20115;-50
2021/09/09 08:40:07;;;;;;;4.20;2.38;;;24.10;68.00;;;;;;5074599;28;20028;-48
2021/09/09 08:42:33;;;;;;;4.57;1.85;;;24.00;67.30;;;;;;5050980;28;20033;-49
2021/09/09 08:44:59;;;;;;;5.93;2.17;;;23.70;67.20;;;;;;5051013;28;20052;-49
2021/09/09 08:47:26;;;;;;;6.13;2.40;;;23.60;67.50;;;;;;5050370;28;20037;-51
2021/09/09 08:49:52;;;;;;;10.20;4.10;;;23.70;68.50;;;;;;5050927;28;20115;-51
2021/09/09 08:52:18;;;;;;;7.20;3.63;;;24.10;67.90;;;;;;5052877;28;20113;-49
2021/09/09 08:54:44;;;;;;;9.30;3.65;;;24.40;67.50;;;;;;5035077;28;20309;-49
2021/09/09 08:57:10;;;;;;;11.70;10.15;;;24.10;67.00;;;;;;5050812;28;20041;-49
2021/09/09 08:59:36;;;;;;;12.07;7.93;;;24.10;66.50;;;;;;5033769;28;20039;-50
2021/09/09 09:02:07;;;;;;;6.05;3.00;;;24.10;66.40;;;;;;5017384;28;20511;-49
2021/09/09 09:04:33;;;;;;;13.63;6.27;;;24.30;66.80;;;;;;5010965;28;20500;-48
2021/09/09 09:07:00;;;;;;;11.43;6.00;;;24.70;66.80;;;;;;4978031;28;20267;-48
2021/09/09 09:09:31;;;;;;;8.80;4.07;;;25.10;65.40;;;;;;5010934;28;20039;-49
2021/09/09 09:11:57;;;;;;;8.05;2.97;;;25.50;65.30;;;;;;5010825;28;20042;-49
2021/09/09 09:14:25;;;;;;;9.32;2.92;;;25.50;64.40;;;;;;4994899;28;20595;-49
2021/09/09 09:17:00;;;;;;;6.00;2.00;;;25.40;64.00;;;;;;5050389;28;20507;-50
2021/09/09 09:19:48;;;;;;;10.60;2.85;;;25.50;64.70;;;;;;5050437;28;20037;-49
2021/09/09 09:22:14;;;;;;;8.20;2.30;;;25.90;64.20;;;;;;5033610;28;20036;-48
2021/09/09 09:24:51;;;;;;;8.90;2.75;;;26.40;63.50;;;;;;5050346;28;20450;-49
2021/09/09 09:27:19;;;;;;;4.15;2.53;;;26.30;63.10;;;;;;5001056;28;20099;-50
2021/09/09 09:30:07;;;;;;;8.27;1.60;;;26.40;62.80;;;;;;5050228;28;20037;-50
2021/09/09 09:32:34;;;;;;;3.67;2.05;;;26.10;62.60;;;;;;5017012;28;20037;-49
2021/09/09 09:35:11;;;;;;;4.18;2.13;;;26.00;63.00;;;;;;5050142;28;20068;-51
2021/09/09 09:37:48;;;;;;;5.05;2.10;;;26.00;62.40;;;;;;5000333;28;20033;-50
2021/09/09 09:40:22;;;;;;;9.75;2.30;;;25.70;63.30;;;;;;5049591;28;20574;-52
2021/09/09 09:42:48;;;;;;;6.07;2.47;;;26.40;63.30;;;;;;5086425;28;20426;-50
2021/09/09 09:45:14;;;;;;;7.40;2.40;;;26.50;63.10;;;;;;5073657;28;20043;-50
2021/09/09 09:47:40;;;;;;;3.15;1.92;;;26.30;62.10;;;;;;5023586;28;20037;-51
2021/09/09 09:50:21;;;;;;;3.75;2.28;;;25.80;63.30;;;;;;5073636;28;20050;-52
2021/09/09 09:52:48;;;;;;;8.23;2.75;;;25.50;63.00;;;;;;5091972;28;20028;-52
2021/09/09 09:55:14;;;;;;;5.80;2.15;;;25.50;63.60;;;;;;5073521;28;20347;-51
2021/09/09 09:57:56;;;;;;;4.40;2.13;;;25.30;63.60;;;;;;5092423;28;20030;-50
2021/09/09 10:00:23;;;;;;;5.28;2.38;;;25.40;64.00;;;;;;5092526;28;20085;-51
2021/09/09 10:02:52;;;;;;;5.75;2.83;;;25.60;63.70;;;;;;5056421;28;20414;-50
2021/09/09 10:05:18;;;;;;;5.75;2.38;;;25.50;64.50;;;;;;5092030;28;20433;-51
2021/09/09 10:07:44;;;;;;;6.97;2.65;;;25.50;63.80;;;;;;5073437;28;20115;-51
2021/09/09 10:10:10;;;;;;;6.03;2.30;;;26.30;65.70;;;;;;5092285;28;20534;-51
2021/09/09 10:12:36;;;;;;;4.70;1.85;;;26.60;63.10;;;;;;5023376;28;20122;-52
2021/09/09 10:15:05;;;;;;;7.00;3.35;;;26.70;62.50;;;;;;5092293;28;20103;-51
2021/09/09 10:17:32;;;;;;;4.45;2.22;;;27.10;62.50;;;;;;5090215;28;20039;-50
2021/09/09 10:20:40;;;;;;;6.15;2.40;;;27.70;61.50;;;;;;5091840;28;20028;-51
2021/09/09 10:23:06;;;;;;;3.90;2.08;;;;;;;;;;5049548;28;20083;-49
2021/09/09 10:25:57;;;;;;;5.65;2.55;;;27.00;60.00;;;;;;5049826;28;20037;-51
2021/09/09 10:28:38;;;;;;;6.45;2.67;;;;;;;;;;5049838;28;20046;-49
2021/09/09 10:31:06;;;;;;;7.80;2.00;;;;;;;;;;5049454;28;20041;-49
2021/09/09 10:33:32;;;;;;;5.28;2.10;;;;;;;;;;5049377;28;20474;-51
2021/09/09 10:35:59;;;;;;;5.50;2.05;;;28.20;58.70;;;;;;5049504;28;20028;-49
2021/09/09 10:38:33;;;;;;;3.53;1.85;;;27.80;58.10;;;;;;5049641;28;20029;-49
2021/09/09 10:41:00;;;;;;;4.43;2.30;;;27.70;58.10;;;;;;5049435;28;20033;-51
2021/09/09 10:43:26;;;;;;;3.15;1.95;;;27.70;57.80;;;;;;5049567;28;20021;-52
2021/09/09 10:46:11;;;;;;;5.03;2.10;;;27.90;57.90;;;;;;5015733;28;20090;-49
2021/09/09 10:48:37;;;;;;;9.93;2.45;;;28.20;57.50;;;;;;5049308;28;20052;-49
2021/09/09 10:51:12;;;;;;;14.30;1.98;;;28.10;58.40;;;;;;5049282;28;20033;-50
2021/09/09 10:53:40;;;;;;;3.92;1.67;;;27.90;57.20;;;;;;5049470;28;20045;-49
2021/09/09 10:56:15;;;;;;;6.60;1.88;;;27.60;57.70;;;;;;5053048;28;20365;-50
2021/09/09 10:58:42;;;;;;;5.05;2.30;;;27.60;57.30;;;;;;5035858;28;20041;-52
2021/09/09 11:01:09;;;;;;;3.17;1.88;;;28.30;57.60;;;;;;5091309;28;20399;-51
2021/09/09 11:03:48;;;;;;;3.35;2.00;;;27.60;72.30;;;;;;5095508;28;20035;-51
2021/09/09 11:06:14;;;;;;;4.47;1.70;;;;;;;;;;5095607;28;20063;-51
2021/09/09 11:08:41;;;;;;;5.63;2.08;;;;;;;;;;5095420;28;20101;-50
2021/09/09 11:11:09;;;;;;;6.10;2.33;;;;;;;;;;5094792;28;20507;-51
2021/09/09 11:13:39;;;;;;;5.40;2.72;;;28.30;92.10;;;;;;5095313;28;20032;-51
2021/09/09 11:16:26;;;;;;;9.52;2.83;;;28.40;68.30;;;;;;5095301;28;20085;-50
2021/09/09 11:18:52;;;;;;;8.55;2.35;;;;;;;;;;5095104;28;20505;-52
2021/09/09 11:21:22;;;;;;;10.45;2.58;;;29.00;90.20;;;;;;5095213;28;20083;-50
2021/09/09 11:23:49;;;;;;;8.45;2.38;;;29.20;63.00;;;;;;5094738;28;20038;-51
2021/09/09 11:26:19;;;;;;;10.73;2.90;;;28.60;57.70;;;;;;5095334;28;20032;-52
2021/09/09 11:28:47;;;;;;;8.48;2.60;;;28.90;57.40;;;;;;5095069;28;20472;-51
2021/09/09 11:31:16;;;;;;;5.38;2.28;;;29.30;57.70;;;;;;5094727;28;20477;-50
2021/09/09 11:33:57;;;;;;;7.90;2.45;;;30.20;69.30;;;;;;5095034;28;20059;-50
2021/09/09 11:36:24;;;;;;;;;;;29.80;57.80;;;;;;5095925;28;20034;-50
2021/09/09 11:38:52;;;;;;;6.82;2.70;;;30.30;63.00;;;;;;5095342;28;20435;-51
2021/09/09 11:41:20;;;;;;;6.88;2.45;;;29.80;61.50;;;;;;5093607;28;20093;-52
2021/09/09 11:43:53;;;;;;;6.45;2.15;;;30.30;60.20;;;;;;5077255;28;20086;-51
2021/09/09 11:46:29;;;;;;;10.50;2.80;;;29.70;60.60;;;;;;5095457;28;20036;-51
2021/09/09 11:48:59;;;;;;;6.95;2.55;;;29.50;61.00;;;;;;5095408;28;20403;-50
2021/09/09 11:51:34;;;;;;;8.60;2.50;;;29.60;60.60;;;;;;5095736;28;20039;-51
2021/09/09 11:54:00;;;;;;;6.88;2.25;;;29.40;60.00;;;;;;5095721;28;20097;-50
2021/09/09 11:56:26;;;;;;;7.20;2.13;;;29.70;59.90;;;;;;5095557;28;20483;-50
2021/09/09 11:58:52;;;;;;;8.20;2.20;;;29.50;59.10;;;;;;5077243;28;20036;-50
2021/09/09 12:01:19;;;;;;;8.52;2.72;;;30.00;59.60;;;;;;5073375;28;20090;-52
2021/09/09 12:03:45;;;;;;;8.13;2.00;;;29.80;55.10;;;;;;5073139;28;20068;-50
2021/09/09 12:06:12;;;;;;;6.60;2.15;;;30.10;78.70;;;;;;5073543;28;20083;-53
2021/09/09 12:08:39;;;;;;;6.43;2.20;;;;;;;;;;5073201;28;20389;-50
2021/09/09 12:11:07;;;;;;;6.50;2.40;;;30.50;73.90;;;;;;5073507;28;20040;-52
2021/09/09 12:13:33;;;;;;;8.95;2.15;;;30.50;72.30;;;;;;5072976;28;20060;-53
2021/09/09 12:16:12;;;;;;;6.50;2.85;;;;;;;;;;5072915;28;20079;-53
2021/09/09 12:18:38;;;;;;;4.80;1.63;;;29.60;87.40;;;;;;5072729;28;20079;-50
2021/09/09 12:21:09;;;;;;;6.18;3.05;;;29.30;64.40;;;;;;5071761;28;20042;-53
2021/09/09 12:23:34;;;;;;;4.22;1.98;;;29.80;64.30;;;;;;5071418;28;20039;-52
2021/09/09 12:26:15;;;;;;;7.30;2.47;;;29.20;57.70;;;;;;5071285;28;20036;-50
2021/09/09 12:28:41;;;;;;;4.50;2.05;;;28.90;55.30;;;;;;5071491;28;20488;-51
2021/09/09 12:31:07;;;;;;;3.85;2.42;;;28.80;55.30;;;;;;5071321;28;20044;-52
2021/09/09 12:33:37;;;;;;;5.75;2.42;;;29.20;55.50;;;;;;5093870;28;20028;-52
2021/09/09 12:36:02;;;;;;;8.15;3.45;;;29.30;55.00;;;;;;5093252;28;20040;-51
2021/09/09 12:38:50;;;;;;;5.57;2.60;;;29.50;55.20;;;;;;5093766;28;20039;-52
2021/09/09 12:41:21;;;;;;;5.10;2.33;;;29.50;54.80;;;;;;5093704;28;20020;-50
2021/09/09 12:44:08;;;;;;;7.97;2.95;;;29.50;54.60;;;;;;5093872;28;20035;-53
2021/09/09 12:46:36;;;;;;;5.88;3.05;;;29.80;55.20;;;;;;5093571;28;20058;-50
2021/09/09 12:49:22;;;;;;;10.65;3.67;;;29.90;58.50;;;;;;5092788;28;20461;-50